Time,TemperatureF,DewpointF,PressureIn,WindDirection,WindDirectionDegrees,WindSpeedMPH,WindSpeedGustMPH,Humidity,HourlyPrecipIn,Conditions,Clouds,dailyrainin,SoftwareType,DateUTC
2013-05-17 00:01:00,57.0,13.0,-100.00,NW,309,3.0,4.0,17,0.00,,,-99.99,,2013-05-17 06:01:00,
2013-05-17 00:11:00,57.0,13.0,-100.00,NW,309,3.0,4.0,17,0.00,,,-99.99,,2013-05-17 06:11:00,
2013-05-17 00:21:00,57.0,13.0,-100.00,NW,309,3.0,4.0,17,0.00,,,-99.99,,2013-05-17 06:21:00,
2013-05-17 00:32:00,57.0,13.0,-100.00,NW,309,3.0,4.0,17,0.00,,,-99.99,,2013-05-17 06:32:00,
2013-05-17 01:02:00,56.0,13.0,-100.00,NNE,18,4.0,8.0,18,0.00,,,0.00,,2013-05-17 07:02:00,
2013-05-17 01:11:00,56.0,13.0,-100.00,NNE,18,4.0,8.0,18,0.00,,,0.00,,2013-05-17 07:11:00,
2013-05-17 01:21:00,56.0,13.0,-100.00,NNE,18,4.0,8.0,18,0.00,,,0.00,,2013-05-17 07:21:00,
2013-05-17 01:32:00,56.0,13.0,-100.00,NNE,18,4.0,8.0,18,0.00,,,0.00,,2013-05-17 07:32:00,
2013-05-17 02:02:00,54.0,10.0,-100.00,North,3,3.0,7.0,17,0.00,,,0.00,,2013-05-17 08:02:00,
2013-05-17 02:12:00,54.0,10.0,-100.00,North,3,3.0,7.0,17,0.00,,,0.00,,2013-05-17 08:12:00,
2013-05-17 02:22:00,54.0,10.0,-100.00,North,3,3.0,7.0,17,0.00,,,0.00,,2013-05-17 08:22:00,
2013-05-17 02:33:00,54.0,10.0,-100.00,North,3,3.0,7.0,17,0.00,,,0.00,,2013-05-17 08:33:00,
2013-05-17 03:02:00,53.0,12.0,-100.00,NNE,24,4.0,7.0,19,0.00,,,0.00,,2013-05-17 09:02:00,
2013-05-17 03:12:00,53.0,12.0,-100.00,NNE,24,4.0,7.0,19,0.00,,,0.00,,2013-05-17 09:12:00,
2013-05-17 03:22:00,53.0,12.0,-100.00,NNE,24,4.0,7.0,19,0.00,,,0.00,,2013-05-17 09:22:00,
2013-05-17 03:33:00,53.0,12.0,-100.00,NNE,24,4.0,7.0,19,0.00,,,0.00,,2013-05-17 09:33:00,
2013-05-17 04:03:00,52.0,13.0,-100.00,NNE,22,5.0,7.0,21,0.00,,,0.00,,2013-05-17 10:03:00,
2013-05-17 04:12:00,52.0,13.0,-100.00,NNE,22,5.0,7.0,21,0.00,,,0.00,,2013-05-17 10:12:00,
2013-05-17 04:23:00,52.0,13.0,-100.00,NNE,22,5.0,7.0,21,0.00,,,0.00,,2013-05-17 10:23:00,
2013-05-17 04:32:00,52.0,13.0,-100.00,NNE,22,5.0,7.0,21,0.00,,,0.00,,2013-05-17 10:32:00,
2013-05-17 05:02:00,51.0,15.0,-100.00,West,261,3.0,7.0,23,0.00,,,0.00,,2013-05-17 11:02:00,
2013-05-17 05:12:00,51.0,15.0,-100.00,West,261,3.0,7.0,23,0.00,,,0.00,,2013-05-17 11:12:00,
2013-05-17 05:22:00,51.0,15.0,-100.00,West,261,3.0,7.0,23,0.00,,,0.00,,2013-05-17 11:22:00,
2013-05-17 05:33:00,51.0,15.0,-100.00,West,261,3.0,7.0,23,0.00,,,0.00,,2013-05-17 11:33:00,
2013-05-17 06:03:00,50.0,16.0,-100.00,SW,234,3.0,4.0,25,0.00,,,0.00,,2013-05-17 12:03:00,
2013-05-17 06:12:00,50.0,16.0,-100.00,SW,234,3.0,4.0,25,0.00,,,0.00,,2013-05-17 12:12:00,
2013-05-17 06:23:00,50.0,16.0,-100.00,SW,234,3.0,4.0,25,0.00,,,0.00,,2013-05-17 12:23:00,
2013-05-17 06:32:00,50.0,16.0,-100.00,SW,234,3.0,4.0,25,0.00,,,0.00,,2013-05-17 12:32:00,
2013-05-17 07:03:00,52.0,13.0,-100.00,West,264,2.0,6.0,21,0.00,,,0.00,,2013-05-17 13:03:00,
2013-05-17 07:12:00,52.0,13.0,-100.00,West,264,2.0,6.0,21,0.00,,,0.00,,2013-05-17 13:12:00,
2013-05-17 07:23:00,52.0,13.0,-100.00,West,264,2.0,6.0,21,0.00,,,0.00,,2013-05-17 13:23:00,
2013-05-17 07:33:00,52.0,13.0,-100.00,West,264,2.0,6.0,21,0.00,,,0.00,,2013-05-17 13:33:00,
2013-05-17 07:34:00,58.0,21.0,-100.00,West,273,4.0,6.0,24,-99.99,,,0.00,,2013-05-17 13:34:00,
2013-05-17 08:02:00,58.0,21.0,-100.00,West,273,4.0,6.0,24,-99.99,,,0.00,,2013-05-17 14:02:00,
2013-05-17 08:34:00,64.0,21.0,-100.00,WSW,240,4.0,8.0,19,0.00,,,0.00,,2013-05-17 14:34:00,
2013-05-17 09:03:00,64.0,21.0,-100.00,WSW,240,4.0,8.0,19,0.00,,,0.00,,2013-05-17 15:03:00,
2013-05-17 09:25:00,64.0,21.0,-100.00,WSW,240,4.0,8.0,19,0.00,,,0.00,,2013-05-17 15:25:00,
2013-05-17 09:34:00,68.0,23.0,-100.00,NW,305,4.0,12.0,18,0.00,,,0.00,,2013-05-17 15:34:00,
2013-05-17 10:07:00,68.0,23.0,-100.00,NW,305,4.0,12.0,18,0.00,,,0.00,,2013-05-17 16:07:00,
2013-05-17 10:13:00,68.0,23.0,-100.00,NW,305,4.0,12.0,18,0.00,,,0.00,,2013-05-17 16:13:00,
2013-05-17 10:26:00,68.0,23.0,-100.00,NW,305,4.0,12.0,18,0.00,,,0.00,,2013-05-17 16:26:00,
2013-05-17 10:34:00,70.0,-99.9,-100.00,NW,306,5.0,13.0,13,0.00,,,0.00,,2013-05-17 16:34:00,
2013-05-17 11:08:00,70.0,17.0,-100.00,NW,306,5.0,13.0,13,0.00,,,0.00,,2013-05-17 17:08:00,
2013-05-17 11:18:00,70.0,17.0,-100.00,NW,306,5.0,13.0,13,0.00,,,0.00,,2013-05-17 17:18:00,
2013-05-17 11:29:00,70.0,17.0,-100.00,NW,306,5.0,13.0,13,0.00,,,0.00,,2013-05-17 17:29:00,
2013-05-17 11:34:00,72.0,18.0,-100.00,NW,304,8.0,15.0,13,0.00,,,0.00,,2013-05-17 17:34:00,
2013-05-17 12:08:00,72.0,18.0,-100.00,NW,304,8.0,15.0,13,0.00,,,0.00,,2013-05-17 18:08:00,
2013-05-17 12:20:00,72.0,18.0,-100.00,NW,304,8.0,15.0,13,0.00,,,0.00,,2013-05-17 18:20:00,
2013-05-17 12:30:00,72.0,18.0,-100.00,NW,304,8.0,15.0,13,0.00,,,0.00,,2013-05-17 18:30:00,
2013-05-17 12:34:00,71.0,14.0,-100.00,NNW,345,9.0,18.0,11,0.00,,,0.00,,2013-05-17 18:34:00,
2013-05-17 13:10:00,71.0,14.0,-100.00,NNW,345,9.0,18.0,11,0.00,,,0.00,,2013-05-17 19:10:00,
2013-05-17 13:20:00,71.0,14.0,-100.00,NNW,345,9.0,18.0,11,0.00,,,0.00,,2013-05-17 19:20:00,
2013-05-17 13:30:00,71.0,14.0,-100.00,NNW,345,9.0,18.0,11,0.00,,,0.00,,2013-05-17 19:30:00,
2013-05-17 13:34:00,75.0,17.0,-100.00,NNW,338,8.0,17.0,11,0.00,,,0.00,,2013-05-17 19:34:00,
2013-05-17 14:00:00,-999.0,-99.9,-100.00,NNW,338,8.0,17.0,11,0.00,,,0.00,,2013-05-17 20:00:00,
2013-05-17 14:09:00,75.0,17.0,-100.00,NNW,338,8.0,17.0,11,0.00,,,0.00,,2013-05-17 20:09:00,
2013-05-17 14:20:00,75.0,17.0,-100.00,NNW,338,8.0,17.0,11,0.00,,,0.00,,2013-05-17 20:20:00,
2013-05-17 14:30:00,75.0,17.0,-100.00,NNW,338,8.0,17.0,11,0.00,,,0.00,,2013-05-17 20:30:00,
2013-05-17 14:34:00,76.0,10.0,-100.00,North,354,13.0,24.0,8,0.00,,,0.00,,2013-05-17 20:34:00,
2013-05-17 14:58:00,76.0,10.0,-100.00,North,354,13.0,24.0,8,0.00,,,0.00,,2013-05-17 20:58:00,
2013-05-17 15:07:00,76.0,10.0,-100.00,North,354,13.0,24.0,8,0.00,,,0.00,,2013-05-17 21:07:00,
2013-05-17 15:16:00,76.0,10.0,-100.00,North,354,13.0,24.0,8,0.00,,,0.00,,2013-05-17 21:16:00,
2013-05-17 15:26:00,76.0,10.0,-100.00,North,354,13.0,24.0,8,0.00,,,0.00,,2013-05-17 21:26:00,
2013-05-17 15:34:00,77.0,11.0,-100.00,North,2,9.0,20.0,8,0.00,,,0.00,,2013-05-17 21:34:00,
2013-05-17 16:06:00,77.0,11.0,-100.00,North,2,9.0,20.0,8,0.00,,,0.00,,2013-05-17 22:06:00,
2013-05-17 16:17:00,77.0,11.0,-100.00,North,2,9.0,20.0,8,0.00,,,0.00,,2013-05-17 22:17:00,
2013-05-17 16:28:00,77.0,11.0,-100.00,North,2,9.0,20.0,8,0.00,,,0.00,,2013-05-17 22:28:00,
2013-05-17 16:34:00,77.0,5.0,-100.00,NNE,26,11.0,22.0,6,0.00,,,0.00,,2013-05-17 22:34:00,
2013-05-17 17:04:00,77.0,5.0,-100.00,NNE,26,11.0,22.0,6,0.00,,,0.00,,2013-05-17 23:04:00,
2013-05-17 17:13:00,77.0,5.0,-100.00,NNE,26,11.0,22.0,6,0.00,,,0.00,,2013-05-17 23:13:00,
2013-05-17 17:23:00,77.0,5.0,-100.00,NNE,26,11.0,22.0,6,0.00,,,0.00,,2013-05-17 23:23:00,
2013-05-17 18:02:00,74.0,3.0,-100.00,NE,38,10.0,22.0,6,0.00,,,0.00,,2013-05-18 00:02:00,
2013-05-17 18:14:00,74.0,3.0,-100.00,NE,38,10.0,22.0,6,0.00,,,0.00,,2013-05-18 00:14:00,
2013-05-17 18:21:00,74.0,3.0,-100.00,NE,38,10.0,22.0,6,0.00,,,0.00,,2013-05-18 00:21:00,
2013-05-17 18:33:00,74.0,3.0,-100.00,NE,38,10.0,22.0,6,0.00,,,0.00,,2013-05-18 00:33:00,
2013-05-17 19:02:00,71.0,7.0,-100.00,NNE,28,8.0,18.0,8,0.00,,,0.00,,2013-05-18 01:02:00,
2013-05-17 19:13:00,71.0,7.0,-100.00,NNE,28,8.0,18.0,8,0.00,,,0.00,,2013-05-18 01:13:00,
2013-05-17 19:24:00,71.0,7.0,-100.00,NNE,28,8.0,18.0,8,0.00,,,0.00,,2013-05-18 01:24:00,
2013-05-17 19:31:00,71.0,7.0,-100.00,NNE,28,8.0,18.0,8,0.00,,,0.00,,2013-05-18 01:31:00,
2013-05-17 20:02:00,67.0,13.0,-100.00,NE,54,9.0,16.0,12,0.00,,,0.00,,2013-05-18 02:02:00,
2013-05-17 20:11:00,67.0,13.0,-100.00,NE,54,9.0,16.0,12,0.00,,,0.00,,2013-05-18 02:11:00,
2013-05-17 20:22:00,67.0,13.0,-100.00,NE,54,9.0,16.0,12,0.00,,,0.00,,2013-05-18 02:22:00,
2013-05-17 20:31:00,67.0,13.0,-100.00,NE,54,9.0,16.0,12,0.00,,,0.00,,2013-05-18 02:31:00,
2013-05-17 21:02:00,63.0,15.0,-100.00,ENE,72,7.0,17.0,15,0.00,,,0.00,,2013-05-18 03:02:00,
2013-05-17 21:12:00,63.0,15.0,-100.00,ENE,72,7.0,17.0,15,0.00,,,0.00,,2013-05-18 03:12:00,
2013-05-17 21:22:00,63.0,15.0,-100.00,ENE,72,7.0,17.0,15,0.00,,,0.00,,2013-05-18 03:22:00,
2013-05-17 21:32:00,63.0,15.0,-100.00,ENE,72,7.0,17.0,15,0.00,,,0.00,,2013-05-18 03:32:00,
2013-05-17 22:02:00,58.0,16.0,-100.00,ENE,78,3.0,11.0,19,0.00,,,0.00,,2013-05-18 04:02:00,
2013-05-17 22:12:00,58.0,16.0,-100.00,ENE,78,3.0,11.0,19,0.00,,,0.00,,2013-05-18 04:12:00,
2013-05-17 22:23:00,58.0,16.0,-100.00,ENE,78,3.0,11.0,19,0.00,,,0.00,,2013-05-18 04:23:00,
2013-05-17 22:32:00,58.0,16.0,-100.00,ENE,78,3.0,11.0,19,0.00,,,0.00,,2013-05-18 04:32:00,
2013-05-17 23:02:00,58.0,17.0,-100.00,ENE,67,5.0,7.0,20,0.00,,,0.00,,2013-05-18 05:02:00,
2013-05-17 23:12:00,58.0,17.0,-100.00,ENE,67,5.0,7.0,20,0.00,,,0.00,,2013-05-18 05:12:00,
2013-05-17 23:22:00,58.0,17.0,-100.00,ENE,67,5.0,7.0,20,0.00,,,0.00,,2013-05-18 05:22:00,
2013-05-17 23:31:00,58.0,17.0,-100.00,ENE,67,5.0,7.0,20,0.00,,,0.00,,2013-05-18 05:31:00,
2013-05-17 23:52:00,57.0,17.0,-100.00,ENE,72,3.0,7.0,21,0.00,,,0.00,,2013-05-18 05:52:00,